createdAt,value
2017-06-26T00:00:53.262Z,99.99
2017-06-26T00:02:03.743Z,99.99
2017-06-26T00:03:13.981Z,99.99
2017-06-26T00:04:24.211Z,99.99
2017-06-26T00:05:34.447Z,99.99
2017-06-26T00:06:44.691Z,99.99
2017-06-26T00:07:54.886Z,99.99
2017-06-26T00:09:05.125Z,99.99
2017-06-26T00:10:15.361Z,99.99
2017-06-26T00:11:25.593Z,99.99
2017-06-26T00:12:35.830Z,99.99
2017-06-26T00:13:46.314Z,99.99
2017-06-26T00:14:56.573Z,99.99
2017-06-26T00:16:06.508Z,99.99
2017-06-26T00:17:16.132Z,99.99
2017-06-26T00:18:26.088Z,99.99
2017-06-26T00:19:36.578Z,99.99
2017-06-26T00:20:46.518Z,99.99
2017-06-26T00:21:56.452Z,99.99
2017-06-26T00:23:06.694Z,99.99
2017-06-26T00:24:16.934Z,99.99
2017-06-26T00:25:27.412Z,99.99
2017-06-26T00:26:37.648Z,99.99
2017-06-26T00:27:47.894Z,99.99
2017-06-26T00:28:58.129Z,99.99
2017-06-26T00:30:08.379Z,99.99
2017-06-26T00:31:18.561Z,99.99
2017-06-26T00:32:28.482Z,99.99
2017-06-26T00:33:38.723Z,99.99
2017-06-26T00:34:48.683Z,99.99
2017-06-26T00:35:58.913Z,99.99
2017-06-26T00:37:09.404Z,99.99
2017-06-26T00:38:19.643Z,99.99
2017-06-26T00:39:29.577Z,99.99
2017-06-26T00:40:39.521Z,99.99
2017-06-26T00:41:49.756Z,99.99
2017-06-26T00:42:59.934Z,99.99
2017-06-26T00:44:09.556Z,99.99
2017-06-26T00:45:19.477Z,99.99
2017-06-26T00:46:29.411Z,99.99
2017-06-26T00:47:39.641Z,99.99
2017-06-26T00:48:49.515Z,99.99
2017-06-26T00:49:59.471Z,99.99
2017-06-26T00:51:09.720Z,99.99
2017-06-26T00:52:19.950Z,99.99
2017-06-26T00:53:30.193Z,99.99
2017-06-26T00:54:40.374Z,99.99
2017-06-26T00:55:50.607Z,99.99
2017-06-26T00:56:59.916Z,99.99
2017-06-26T00:58:09.843Z,99.99
2017-06-26T00:59:20.075Z,99.99
2017-06-26T01:00:30.559Z,99.99
2017-06-26T01:01:40.789Z,99.99
2017-06-26T01:02:51.034Z,99.99
2017-06-26T01:04:00.954Z,99.99
2017-06-26T01:05:11.195Z,99.99
2017-06-26T01:06:21.064Z,99.99
2017-06-26T01:07:30.981Z,99.99
2017-06-26T01:08:41.212Z,99.99
2017-06-26T01:09:51.144Z,99.99
2017-06-26T01:11:01.380Z,99.99
2017-06-26T01:12:11.856Z,99.99
2017-06-26T01:13:21.786Z,99.99
2017-06-26T01:14:32.026Z,99.99
2017-06-26T01:15:41.960Z,99.99
2017-06-26T01:16:52.201Z,99.99
2017-06-26T01:18:02.689Z,99.99
2017-06-26T01:19:12.930Z,99.99
2017-06-26T01:20:23.170Z,99.99
2017-06-26T01:21:33.405Z,99.99
2017-06-26T01:22:43.341Z,99.99
2017-06-26T01:23:53.828Z,99.99
2017-06-26T01:25:04.067Z,99.99
2017-06-26T01:26:14.306Z,99.99
2017-06-26T01:27:24.539Z,99.99
2017-06-26T01:28:34.794Z,99.99
2017-06-26T01:29:45.284Z,99.99
2017-06-26T01:30:55.527Z,99.99
2017-06-26T01:32:05.450Z,99.99
2017-06-26T01:33:15.680Z,99.99
2017-06-26T01:34:25.924Z,99.99
2017-06-26T01:35:36.421Z,99.99
2017-06-26T01:36:46.368Z,99.99
2017-06-26T01:37:56.297Z,99.99
2017-06-26T01:39:06.526Z,99.99
2017-06-26T01:40:16.765Z,99.99
2017-06-26T01:41:27.249Z,99.99
2017-06-26T01:42:37.491Z,99.99
2017-06-26T01:43:47.113Z,99.99
2017-06-26T01:44:57.344Z,99.99
2017-06-26T01:46:07.272Z,99.99
2017-06-26T01:47:17.770Z,99.99
2017-06-26T01:48:27.997Z,99.99
2017-06-26T01:49:37.931Z,99.99
2017-06-26T01:50:48.168Z,99.99
2017-06-26T01:51:58.396Z,99.99
2017-06-26T01:53:08.880Z,99.99
2017-06-26T01:54:18.805Z,99.99
2017-06-26T01:55:29.040Z,99.99
2017-06-26T01:56:39.270Z,99.99
2017-06-26T01:57:49.510Z,99.99
2017-06-26T01:58:59.992Z,99.99
2017-06-26T02:00:09.919Z,99.99
2017-06-26T02:01:20.152Z,99.99
2017-06-26T02:02:30.081Z,99.99
2017-06-26T02:03:40.314Z,99.99
2017-06-26T02:04:50.796Z,99.99
2017-06-26T02:06:01.034Z,99.99
2017-06-26T02:07:10.961Z,99.99
2017-06-26T02:08:21.197Z,99.99
2017-06-26T02:09:31.431Z,99.99
2017-06-26T02:10:41.608Z,99.99
2017-06-26T02:11:51.529Z,99.99
2017-06-26T02:13:01.769Z,99.99
2017-06-26T02:14:11.720Z,99.99
2017-06-26T02:15:21.954Z,99.99
2017-06-26T02:16:32.123Z,99.99
2017-06-26T02:17:42.365Z,99.99
2017-06-26T02:18:52.600Z,99.99
2017-06-26T02:20:02.827Z,99.99
2017-06-26T02:21:13.061Z,99.99
2017-06-26T02:22:23.554Z,99.99
2017-06-26T02:23:33.794Z,99.99
2017-06-26T02:24:43.412Z,99.99
2017-06-26T02:25:53.640Z,99.99
2017-06-26T02:27:03.571Z,99.99
2017-06-26T02:28:14.058Z,99.99
2017-06-26T02:29:24.287Z,99.99
2017-06-26T02:30:34.551Z,99.99
2017-06-26T02:31:44.790Z,99.99
2017-06-26T02:32:55.039Z,99.99
2017-06-26T02:34:05.234Z,99.99
2017-06-26T02:35:15.465Z,99.99
2017-06-26T02:36:25.731Z,99.99
2017-06-26T02:37:35.972Z,99.99
2017-06-26T02:38:46.199Z,99.99
2017-06-26T02:39:56.377Z,99.99
2017-06-26T02:41:06.616Z,99.99
2017-06-26T02:42:16.854Z,99.99
2017-06-26T02:43:27.114Z,99.99
2017-06-26T02:44:37.345Z,99.99
2017-06-26T02:45:47.522Z,99.99
2017-06-26T02:46:57.760Z,99.99
2017-06-26T02:48:07.993Z,99.99
2017-06-26T02:49:18.253Z,99.99
2017-06-26T02:50:28.491Z,99.99
2017-06-26T02:51:38.685Z,99.99
2017-06-26T02:52:48.914Z,99.99
2017-06-26T02:53:59.152Z,99.99
2017-06-26T02:55:09.392Z,99.99
2017-06-26T02:56:19.627Z,99.99
2017-06-26T02:57:30.116Z,99.99
2017-06-26T02:58:40.351Z,99.99
2017-06-26T02:59:50.587Z,99.99
2017-06-26T03:01:00.819Z,99.99
2017-06-26T03:02:10.759Z,99.99
2017-06-26T03:03:21.242Z,99.99
2017-06-26T03:04:31.174Z,99.99
2017-06-26T03:05:41.400Z,99.99
2017-06-26T03:06:51.327Z,99.99
2017-06-26T03:08:01.250Z,99.99
2017-06-26T03:09:11.431Z,99.99
2017-06-26T03:10:21.669Z,99.99
2017-06-26T03:11:31.298Z,99.99
2017-06-26T03:12:41.219Z,99.99
2017-06-26T03:13:51.445Z,99.99
2017-06-26T03:15:01.951Z,99.99
2017-06-26T03:16:12.185Z,99.99
2017-06-26T03:17:22.422Z,99.99
2017-06-26T03:18:32.352Z,99.99
2017-06-26T03:19:42.592Z,99.99
2017-06-26T03:20:53.076Z,99.99
2017-06-26T03:22:03.003Z,99.99
2017-06-26T03:23:12.926Z,99.99
2017-06-26T03:24:23.189Z,99.99
2017-06-26T03:25:32.826Z,99.99
2017-06-26T03:26:43.333Z,99.99
2017-06-26T03:27:53.251Z,99.99
2017-06-26T03:29:03.176Z,99.99
2017-06-26T03:30:13.428Z,99.99
2017-06-26T03:31:23.358Z,99.99
2017-06-26T03:32:33.855Z,99.99
2017-06-26T03:33:44.086Z,99.99
2017-06-26T03:34:54.346Z,99.99
2017-06-26T03:36:04.279Z,99.99
2017-06-26T03:37:14.213Z,99.99
2017-06-26T03:38:24.693Z,99.99
2017-06-26T03:39:34.924Z,99.99
2017-06-26T03:40:44.541Z,99.99
2017-06-26T03:41:54.471Z,99.99
2017-06-26T03:43:04.706Z,99.99
2017-06-26T03:44:14.933Z,99.99
2017-06-26T03:45:25.182Z,99.99
2017-06-26T03:46:35.114Z,99.99
2017-06-26T03:47:45.047Z,99.99
2017-06-26T03:48:55.280Z,99.99
2017-06-26T03:50:05.761Z,99.99
2017-06-26T03:51:16.002Z,99.99
2017-06-26T03:52:26.254Z,99.99
2017-06-26T03:53:36.491Z,99.99
2017-06-26T03:54:46.424Z,99.99
2017-06-26T03:55:56.631Z,99.99
2017-06-26T03:57:06.871Z,99.99
2017-06-26T03:58:16.493Z,99.99
2017-06-26T03:59:26.419Z,99.99
2017-06-26T04:00:36.658Z,99.99
2017-06-26T04:01:46.838Z,99.99
2017-06-26T04:02:57.075Z,99.99
2017-06-26T04:04:07.306Z,99.99
2017-06-26T04:05:17.537Z,99.99
2017-06-26T04:06:27.776Z,99.99
2017-06-26T04:07:38.263Z,99.99
2017-06-26T04:08:48.185Z,99.99
2017-06-26T04:09:58.418Z,99.99
2017-06-26T04:11:08.651Z,99.99
2017-06-26T04:12:18.286Z,99.99
2017-06-26T04:13:28.156Z,99.99
2017-06-26T04:14:38.392Z,99.99
2017-06-26T04:15:48.316Z,99.99
2017-06-26T04:16:58.552Z,99.99
2017-06-26T04:18:08.794Z,99.99
2017-06-26T04:19:19.289Z,99.99
2017-06-26T04:20:29.524Z,99.99
2017-06-26T04:21:39.761Z,99.99
2017-06-26T04:22:49.990Z,99.99
2017-06-26T04:24:00.237Z,99.99
2017-06-26T04:25:10.721Z,99.99
2017-06-26T04:26:20.962Z,99.99
2017-06-26T04:27:30.887Z,99.99
2017-06-26T04:28:40.499Z,99.99
2017-06-26T04:29:50.744Z,99.99
2017-06-26T04:31:01.226Z,99.99
2017-06-26T04:32:11.469Z,99.99
2017-06-26T04:33:21.738Z,99.99
2017-06-26T04:34:31.966Z,99.99
2017-06-26T04:35:41.593Z,99.99
2017-06-26T04:36:52.075Z,99.99
2017-06-26T04:38:02.323Z,99.99
2017-06-26T04:39:12.559Z,99.99
2017-06-26T04:40:22.801Z,99.99
2017-06-26T04:41:32.734Z,99.99
2017-06-26T04:42:42.926Z,99.99
2017-06-26T04:43:53.163Z,99.99
2017-06-26T04:45:03.108Z,99.99
2017-06-26T04:46:12.736Z,99.99
2017-06-26T04:47:22.361Z,99.99
2017-06-26T04:48:32.849Z,99.99
2017-06-26T04:49:42.786Z,99.99
2017-06-26T04:50:53.027Z,99.99
2017-06-26T04:52:03.265Z,99.99
2017-06-26T04:53:13.507Z,99.99
2017-06-26T04:54:24.000Z,99.99
2017-06-26T04:55:34.238Z,99.99
2017-06-26T04:56:44.476Z,99.99
2017-06-26T04:57:54.717Z,99.99
2017-06-26T04:59:04.949Z,99.99
2017-06-26T05:00:15.133Z,99.99
2017-06-26T05:01:25.368Z,99.99
2017-06-26T05:02:35.605Z,99.99
2017-06-26T05:03:45.838Z,99.99
2017-06-26T05:04:55.763Z,99.99
2017-06-26T05:06:05.946Z,99.99
2017-06-26T05:07:16.194Z,99.99
2017-06-26T05:08:26.123Z,99.99
2017-06-26T05:09:36.367Z,99.99
2017-06-26T05:10:46.624Z,99.99
2017-06-26T05:11:56.808Z,99.99
2017-06-26T05:13:07.074Z,99.99
2017-06-26T05:14:17.007Z,99.99
2017-06-26T05:15:27.249Z,99.99
2017-06-26T05:16:37.496Z,99.99
2017-06-26T05:17:47.730Z,99.99
2017-06-26T05:18:57.359Z,99.99
2017-06-26T05:20:07.605Z,99.99
2017-06-26T05:21:17.551Z,99.99
2017-06-26T05:22:27.802Z,99.99
2017-06-26T05:23:38.445Z,99.99
2017-06-26T05:24:48.373Z,99.99
2017-06-26T05:25:58.606Z,99.99
2017-06-26T05:27:08.549Z,99.99
2017-06-26T05:28:18.798Z,99.99
2017-06-26T05:29:29.286Z,99.99
2017-06-26T05:30:39.521Z,99.99
2017-06-26T05:31:49.778Z,99.99
2017-06-26T05:32:59.706Z,99.99
2017-06-26T05:34:09.645Z,99.99
2017-06-26T05:35:19.837Z,99.99
2017-06-26T05:36:30.105Z,99.99
2017-06-26T05:37:40.075Z,99.99
2017-06-26T05:38:50.317Z,99.99
2017-06-26T05:40:00.567Z,99.99
2017-06-26T05:41:11.045Z,99.99
2017-06-26T05:42:21.306Z,99.99
2017-06-26T05:43:31.543Z,99.99
2017-06-26T05:44:41.782Z,99.99
2017-06-26T05:45:51.721Z,99.99
2017-06-26T05:47:01.913Z,99.99
2017-06-26T05:48:12.156Z,99.99
2017-06-26T05:49:22.402Z,99.99
2017-06-26T05:50:32.335Z,99.99
2017-06-26T05:51:42.273Z,99.99
2017-06-26T05:52:52.793Z,99.99
2017-06-26T05:54:02.753Z,99.99
2017-06-26T05:55:13.020Z,99.99
2017-06-26T05:56:23.262Z,99.99
2017-06-26T05:57:33.516Z,99.99
2017-06-26T05:58:44.000Z,99.99
2017-06-26T05:59:54.273Z,99.99
2017-06-26T06:01:04.514Z,99.99
2017-06-26T06:02:14.759Z,99.99
2017-06-26T06:03:24.387Z,99.99
2017-06-26T06:04:34.569Z,99.99
2017-06-26T06:05:44.806Z,99.99
2017-06-26T06:06:55.052Z,99.99
2017-06-26T06:08:05.313Z,99.99
2017-06-26T06:09:15.566Z,99.99
2017-06-26T06:10:26.061Z,99.99
2017-06-26T06:11:35.396Z,99.99
2017-06-26T06:12:45.662Z,99.99
2017-06-26T06:13:55.897Z,99.99
2017-06-26T06:15:06.134Z,99.99
2017-06-26T06:16:16.637Z,99.99
2017-06-26T06:17:26.947Z,99.99
2017-06-26T06:18:36.904Z,99.99
2017-06-26T06:19:47.165Z,99.99
2017-06-26T06:20:57.101Z,99.99
2017-06-26T06:22:07.641Z,99.99
2017-06-26T06:23:17.629Z,99.99
2017-06-26T06:24:27.569Z,99.99
2017-06-26T06:25:37.499Z,99.99
2017-06-26T06:26:47.766Z,99.99
2017-06-26T06:27:57.964Z,99.99
2017-06-26T06:29:08.209Z,99.99
2017-06-26T06:30:18.453Z,99.99
2017-06-26T06:31:28.696Z,99.99
2017-06-26T06:32:38.946Z,99.99
2017-06-26T06:33:49.458Z,99.99
2017-06-26T06:34:59.739Z,99.99
2017-06-26T06:36:09.999Z,99.99
2017-06-26T06:37:20.274Z,99.99
2017-06-26T06:38:30.552Z,99.99
2017-06-26T06:39:40.757Z,99.99
2017-06-26T06:40:51.008Z,99.99
2017-06-26T06:42:01.242Z,99.99
2017-06-26T06:43:11.193Z,99.99
2017-06-26T06:44:21.442Z,99.99
2017-06-26T06:45:31.973Z,99.99
2017-06-26T06:46:42.540Z,99.99
2017-06-26T06:47:52.786Z,99.99
2017-06-26T06:49:03.058Z,99.99
2017-06-26T06:50:13.356Z,99.99
2017-06-26T06:51:23.869Z,99.99
2017-06-26T06:52:33.837Z,99.99
2017-06-26T06:53:44.118Z,99.99
2017-06-26T06:54:54.112Z,99.99
2017-06-26T06:56:03.768Z,99.99
2017-06-26T06:57:14.273Z,99.99
2017-06-26T06:58:24.559Z,99.99
2017-06-26T06:59:34.861Z,99.99
2017-06-26T07:00:45.183Z,99.99
2017-06-26T07:01:55.511Z,99.99
2017-06-26T07:03:05.754Z,99.99
2017-06-26T07:04:16.041Z,99.99
2017-06-26T07:05:26.330Z,99.99
2017-06-26T07:06:36.678Z,99.99
2017-06-26T07:07:46.648Z,99.99
2017-06-26T07:08:57.160Z,99.99
2017-06-26T07:10:07.169Z,99.99
2017-06-26T07:11:17.459Z,99.99
2017-06-26T07:12:27.754Z,99.99
2017-06-26T07:13:37.733Z,99.99
2017-06-26T07:14:48.517Z,99.99
2017-06-26T07:15:58.791Z,99.99
2017-06-26T07:17:09.058Z,99.99
2017-06-26T07:18:19.021Z,99.99
2017-06-26T07:19:29.294Z,99.99
2017-06-26T07:20:39.901Z,99.99
2017-06-26T07:21:50.217Z,99.99
2017-06-26T07:23:00.494Z,99.99
2017-06-26T07:24:10.760Z,99.99
2017-06-26T07:25:21.029Z,99.99
2017-06-26T07:26:31.554Z,99.99
2017-06-26T07:27:41.853Z,99.99
2017-06-26T07:28:52.121Z,99.99
2017-06-26T07:30:02.416Z,99.99
2017-06-26T07:31:12.685Z,99.99
2017-06-26T07:32:23.228Z,99.99
2017-06-26T07:33:33.198Z,99.99
2017-06-26T07:34:43.497Z,99.99
2017-06-26T07:35:53.474Z,99.99
2017-06-26T07:37:03.723Z,99.99
2017-06-26T07:38:14.188Z,99.99
2017-06-26T07:39:24.576Z,99.99
2017-06-26T07:40:34.848Z,99.99
2017-06-26T07:41:45.003Z,99.99
2017-06-26T07:42:55.272Z,99.99
2017-06-26T07:44:05.785Z,99.99
2017-06-26T07:45:16.079Z,99.99
2017-06-26T07:46:26.397Z,99.99
2017-06-26T07:47:36.691Z,99.99
2017-06-26T07:48:46.981Z,99.99
2017-06-26T07:49:57.508Z,99.99
2017-06-26T07:51:07.806Z,99.99
2017-06-26T07:52:17.753Z,99.99
2017-06-26T07:53:28.018Z,99.99
2017-06-26T07:54:38.289Z,99.99
2017-06-26T07:55:48.514Z,99.99
2017-06-26T07:56:58.473Z,99.99
2017-06-26T07:58:08.785Z,99.99
2017-06-26T07:59:19.046Z,99.99
2017-06-26T08:00:29.300Z,99.99
2017-06-26T08:01:39.194Z,99.99
2017-06-26T08:02:48.830Z,99.99
2017-06-26T08:03:59.076Z,99.99
2017-06-26T08:05:09.024Z,99.99
2017-06-26T08:06:19.280Z,99.99
2017-06-26T08:07:29.804Z,99.99
2017-06-26T08:08:40.078Z,99.99
2017-06-26T08:09:50.379Z,99.99
2017-06-26T08:11:00.659Z,99.99
2017-06-26T08:12:10.621Z,99.99
2017-06-26T08:13:20.845Z,99.99
2017-06-26T08:14:31.131Z,99.99
2017-06-26T08:15:41.410Z,99.99
2017-06-26T08:16:51.673Z,99.99
2017-06-26T08:18:01.981Z,99.99
2017-06-26T08:19:12.173Z,99.99
2017-06-26T08:20:22.130Z,99.99
2017-06-26T08:21:31.169Z,99.99
2017-06-26T08:22:41.434Z,99.99
2017-06-26T08:23:51.691Z,99.99
2017-06-26T08:25:01.599Z,99.99
2017-06-26T08:26:11.553Z,99.99
2017-06-26T08:27:21.843Z,99.99
2017-06-26T08:28:32.115Z,99.99
2017-06-26T08:29:42.387Z,99.99
2017-06-26T08:30:53.141Z,99.99
2017-06-26T08:32:03.449Z,99.99
2017-06-26T08:33:13.102Z,99.99
2017-06-26T08:34:23.368Z,99.99
2017-06-26T08:35:33.625Z,99.99
2017-06-26T08:36:44.157Z,99.99
2017-06-26T08:37:54.434Z,99.99
2017-06-26T08:39:04.407Z,99.99
2017-06-26T08:40:14.707Z,99.99
2017-06-26T08:41:24.681Z,99.99
2017-06-26T08:42:35.223Z,99.99
2017-06-26T08:43:45.496Z,99.99
2017-06-26T08:44:55.449Z,99.99
2017-06-26T08:46:05.421Z,99.99
2017-06-26T08:47:15.695Z,99.99
2017-06-26T08:48:26.225Z,99.99
2017-06-26T08:49:36.536Z,99.99
2017-06-26T08:50:46.493Z,99.99
2017-06-26T08:51:56.457Z,99.99
2017-06-26T08:53:06.732Z,99.99
2017-06-26T08:54:17.260Z,99.99
2017-06-26T08:55:27.245Z,99.99
2017-06-26T08:56:36.861Z,99.99
2017-06-26T08:57:46.815Z,99.99
2017-06-26T08:58:57.085Z,99.99
2017-06-26T09:00:07.623Z,99.99
2017-06-26T09:01:17.593Z,99.99
2017-06-26T09:02:27.907Z,99.99
2017-06-26T09:03:38.178Z,99.99
2017-06-26T09:04:48.466Z,99.99
2017-06-26T09:05:58.372Z,99.99
2017-06-26T09:07:08.647Z,99.99
2017-06-26T09:08:18.928Z,99.99
2017-06-26T09:09:28.889Z,99.99
2017-06-26T09:10:39.160Z,99.99
2017-06-26T09:11:49.708Z,97.42
2017-06-26T09:12:59.699Z,98.76
2017-06-26T09:14:10.043Z,99.99
2017-06-26T09:15:19.991Z,97.42
2017-06-26T09:16:30.264Z,99.99
2017-06-26T09:17:40.805Z,94.59
2017-06-26T09:18:51.076Z,95.75
2017-06-26T09:20:01.034Z,93.93
2017-06-26T09:21:11.344Z,94.45
2017-06-26T09:22:21.619Z,94.84
2017-06-26T09:23:32.186Z,96.66
2017-06-26T09:24:42.487Z,97.8
2017-06-26T09:25:52.761Z,91.43
2017-06-26T09:27:02.714Z,93.93
2017-06-26T09:28:12.675Z,93.68
2017-06-26T09:29:23.197Z,91
2017-06-26T09:30:33.465Z,84.04
2017-06-26T09:31:43.747Z,85.86
2017-06-26T09:32:53.703Z,84.71
2017-06-26T09:34:03.984Z,85.77
2017-06-26T09:35:14.504Z,82.6
2017-06-26T09:36:24.776Z,79.05
2017-06-26T09:37:35.052Z,82.65
2017-06-26T09:38:45.318Z,82.79
2017-06-26T09:39:55.610Z,84.42
2017-06-26T09:41:06.134Z,88.65
2017-06-26T09:42:16.401Z,85.33
2017-06-26T09:43:26.666Z,82.16
2017-06-26T09:44:36.998Z,79.13
2017-06-26T09:45:46.966Z,72.92
2017-06-26T09:46:57.199Z,74.13
2017-06-26T09:48:07.483Z,72.69
2017-06-26T09:49:17.755Z,76.69
2017-06-26T09:50:28.250Z,74.48
2017-06-26T09:51:38.523Z,73.72
2017-06-26T09:52:49.046Z,73.04
2017-06-26T09:53:59.012Z,74.52
2017-06-26T09:55:08.991Z,76.4
2017-06-26T09:56:19.279Z,76.4
2017-06-26T09:57:29.544Z,75.2
2017-06-26T09:58:40.062Z,72.41
2017-06-26T09:59:50.033Z,74.29
2017-06-26T10:00:59.755Z,74.77
2017-06-26T10:02:09.101Z,72.63
2017-06-26T10:03:19.359Z,74.06
2017-06-26T10:04:29.878Z,75.5
2017-06-26T10:05:39.831Z,74.83
2017-06-26T10:06:49.776Z,76.37
2017-06-26T10:07:59.441Z,74.35
2017-06-26T10:09:09.725Z,73.43
2017-06-26T10:10:20.248Z,70.26
2017-06-26T10:11:30.229Z,68.34
2017-06-26T10:12:40.192Z,69.97
2017-06-26T10:13:50.153Z,68.91
2017-06-26T10:15:00.450Z,69.78
2017-06-26T10:16:10.961Z,68.73
2017-06-26T10:17:21.235Z,69.68
2017-06-26T10:18:31.496Z,71.03
2017-06-26T10:19:41.458Z,71.35
2017-06-26T10:20:51.734Z,69.24
2017-06-26T10:22:01.956Z,67.25
2017-06-26T10:23:11.914Z,63.7
2017-06-26T10:24:21.567Z,63.41
2017-06-26T10:25:31.520Z,60.34
2017-06-26T10:26:41.790Z,57.29
2017-06-26T10:27:52.015Z,55.85
2017-06-26T10:29:02.301Z,57.36
2017-06-26T10:30:12.264Z,57.36
2017-06-26T10:31:22.223Z,56.43
2017-06-26T10:32:32.501Z,56.33
2017-06-26T10:33:43.044Z,54.41
2017-06-26T10:34:53.339Z,55.85
2017-06-26T10:36:03.633Z,56.23
2017-06-26T10:37:13.613Z,56.71
2017-06-26T10:38:23.886Z,54.24
2017-06-26T10:39:34.095Z,53.76
2017-06-26T10:40:44.371Z,54.27
2017-06-26T10:41:54.669Z,52.92
2017-06-26T10:43:04.960Z,52.54
2017-06-26T10:44:15.267Z,53.72
2017-06-26T10:45:25.186Z,53.43
2017-06-26T10:46:35.156Z,54.87
2017-06-26T10:47:45.423Z,53.72
2017-06-26T10:48:55.699Z,51.7
2017-06-26T10:50:05.684Z,50.18
2017-06-26T10:51:15.915Z,47.51
2017-06-26T10:52:26.204Z,48.83
2017-06-26T10:53:36.181Z,49.6
2017-06-26T10:54:46.462Z,51.89
2017-06-26T10:55:56.423Z,53.31
2017-06-26T10:57:06.639Z,54.56
2017-06-26T10:58:15.981Z,55.3
2017-06-26T10:59:25.978Z,56.55
2017-06-26T11:00:36.271Z,56.16
2017-06-26T11:01:46.565Z,56.74
2017-06-26T11:02:56.797Z,56.14
2017-06-26T11:04:07.062Z,56.65
2017-06-26T11:05:17.342Z,57.97
2017-06-26T11:06:27.608Z,58.35
2017-06-26T11:07:37.880Z,57.2
2017-06-26T11:08:48.090Z,57.13
2017-06-26T11:09:58.355Z,57.58
2017-06-26T11:11:08.637Z,57.2
2017-06-26T11:12:18.920Z,57.97
2017-06-26T11:13:28.894Z,58.06
2017-06-26T11:14:39.413Z,59.02
2017-06-26T11:15:49.379Z,58.25
2017-06-26T11:16:59.657Z,58.15
2017-06-26T11:18:09.941Z,57.32
2017-06-26T11:19:19.896Z,57.6
2017-06-26T11:20:30.420Z,58.09
2017-06-26T11:21:40.404Z,55.98
2017-06-26T11:22:50.072Z,56.58
2017-06-26T11:24:00.361Z,54.56
2017-06-26T11:25:10.023Z,55.68
2017-06-26T11:26:20.563Z,57.39
2017-06-26T11:27:30.541Z,57.97
2017-06-26T11:28:40.822Z,57.68
2017-06-26T11:29:51.082Z,57.58
2017-06-26T11:31:01.350Z,57.87
2017-06-26T11:32:11.571Z,57.87
2017-06-26T11:33:21.890Z,58.54
2017-06-26T11:34:32.177Z,58.83
2017-06-26T11:35:42.473Z,59.69
2017-06-26T11:36:52.495Z,58.92
2017-06-26T11:38:03.098Z,60.17
2017-06-26T11:39:13.366Z,60.46
2017-06-26T11:40:23.696Z,59.34
2017-06-26T11:41:33.043Z,58.28
2017-06-26T11:42:43.326Z,58.09
2017-06-26T11:43:53.598Z,58.95
2017-06-26T11:45:03.279Z,57.51
2017-06-26T11:46:13.248Z,58.28
2017-06-26T11:47:23.513Z,58.83
2017-06-26T11:48:33.806Z,58.73
2017-06-26T11:49:43.419Z,59.79
2017-06-26T11:50:53.079Z,58.92
2017-06-26T11:52:03.363Z,57.68
2017-06-26T11:53:13.615Z,57.42
2017-06-26T11:54:23.897Z,58.18
2017-06-26T11:55:34.449Z,58.86
2017-06-26T11:56:44.419Z,57.99
2017-06-26T11:57:54.703Z,56.77
2017-06-26T11:59:05.001Z,56.12
2017-06-26T12:00:15.287Z,55.55
2017-06-26T12:01:25.236Z,54.58
2017-06-26T12:02:35.190Z,53.91
2017-06-26T12:03:45.189Z,55.93
2017-06-26T12:04:55.462Z,55.07
2017-06-26T12:06:05.730Z,55.35
2017-06-26T12:07:16.269Z,54.68
2017-06-26T12:08:26.529Z,55.26
2017-06-26T12:09:36.511Z,54.46
2017-06-26T12:10:46.482Z,55.04
2017-06-26T12:11:56.136Z,54.17
2017-06-26T12:13:07.999Z,51.98
2017-06-26T12:14:18.265Z,50.73
2017-06-26T12:15:28.552Z,50.85
2017-06-26T12:16:38.206Z,51.34
2017-06-26T12:17:48.168Z,50.95
2017-06-26T12:18:58.731Z,49.7
2017-06-26T12:20:08.745Z,50.76
2017-06-26T12:21:18.703Z,50.76
2017-06-26T12:22:28.968Z,48.28
2017-06-26T12:23:38.939Z,48.28
2017-06-26T12:24:49.467Z,48.64
2017-06-26T12:25:59.435Z,49.02
2017-06-26T12:27:09.712Z,49.41
2017-06-26T12:28:19.378Z,48.95
2017-06-26T12:29:29.666Z,48.18
2017-06-26T12:30:40.204Z,48.66
2017-06-26T12:31:50.187Z,47.51
2017-06-26T12:33:00.456Z,47.14
2017-06-26T12:34:10.754Z,47.05
2017-06-26T12:35:21.006Z,48.21
2017-06-26T12:36:31.260Z,47.34
2017-06-26T12:37:41.222Z,48.4
2017-06-26T12:38:51.205Z,49.05
2017-06-26T12:40:01.153Z,48.38
2017-06-26T12:41:11.117Z,48.95
2017-06-26T12:42:21.657Z,49.82
2017-06-26T12:43:31.618Z,49.82
2017-06-26T12:44:41.902Z,47.8
2017-06-26T12:45:52.167Z,46.86
2017-06-26T12:47:02.487Z,46.06
2017-06-26T12:48:13.072Z,46.73
2017-06-26T12:49:23.024Z,46.73
2017-06-26T12:50:32.993Z,46.64
2017-06-26T12:51:43.252Z,45.77
2017-06-26T12:52:52.893Z,45.68
2017-06-26T12:54:03.444Z,46.93
2017-06-26T12:55:13.730Z,47.7
2017-06-26T12:56:23.724Z,47.6
2017-06-26T12:57:33.690Z,47.8
2017-06-26T12:58:43.652Z,45.89
2017-06-26T12:59:54.172Z,45.04
2017-06-26T13:01:04.149Z,44.27
2017-06-26T13:02:14.133Z,43.91
2017-06-26T13:03:24.404Z,44.39
2017-06-26T13:04:34.684Z,41.71
2017-06-26T13:05:45.205Z,41.33
2017-06-26T13:06:55.168Z,40.28
2017-06-26T13:08:05.146Z,39.12
2017-06-26T13:09:15.110Z,40.84
2017-06-26T13:10:25.394Z,40.36
2017-06-26T13:11:35.623Z,40.55
2017-06-26T13:12:45.601Z,40.65
2017-06-26T13:13:55.899Z,40.19
2017-06-26T13:15:06.171Z,41.91
2017-06-26T13:16:15.824Z,42.18
2017-06-26T13:17:26.365Z,42.58
2017-06-26T13:18:36.676Z,43.04
2017-06-26T13:19:46.957Z,42.18
2017-06-26T13:20:56.629Z,43.14
2017-06-26T13:22:06.897Z,42.94
2017-06-26T13:23:17.420Z,43.24
2017-06-26T13:24:27.409Z,44.18
2017-06-26T13:25:37.693Z,43.12
2017-06-26T13:26:47.375Z,44.25
2017-06-26T13:27:57.350Z,44.06
2017-06-26T13:29:07.889Z,44.06
2017-06-26T13:30:18.168Z,45.21
2017-06-26T13:31:28.165Z,45.03
2017-06-26T13:32:37.814Z,45.41
2017-06-26T13:33:47.776Z,44.35
2017-06-26T13:34:58.294Z,44.83
2017-06-26T13:36:08.563Z,45.87
2017-06-26T13:37:18.515Z,46.64
2017-06-26T13:38:28.801Z,46.55
2017-06-26T13:39:38.753Z,47.1
2017-06-26T13:40:49.499Z,47.1
2017-06-26T13:41:59.168Z,47.6
2017-06-26T13:43:09.420Z,46.93
2017-06-26T13:44:19.377Z,46.93
2017-06-26T13:45:29.658Z,46.15
2017-06-26T13:46:40.192Z,46.83
2017-06-26T13:47:50.480Z,47.8
2017-06-26T13:49:00.761Z,47.77
2017-06-26T13:50:11.033Z,47
2017-06-26T13:51:20.999Z,46.71
2017-06-26T13:52:31.529Z,46.52
2017-06-26T13:53:41.782Z,47.1
2017-06-26T13:54:51.745Z,48.33
2017-06-26T13:56:02.011Z,47.36
2017-06-26T13:57:12.282Z,47.46
2017-06-26T13:58:22.534Z,47.27
2017-06-26T13:59:32.794Z,47.75
2017-06-26T14:00:42.751Z,48.23
2017-06-26T14:01:52.732Z,47.65
2017-06-26T14:03:02.995Z,48.13
2017-06-26T14:04:12.908Z,47.87
2017-06-26T14:05:23.196Z,46.69
2017-06-26T14:06:33.156Z,46.88
2017-06-26T14:07:43.127Z,47.87
2017-06-26T14:08:53.085Z,47
2017-06-26T14:10:03.320Z,47.08
2017-06-26T14:11:13.286Z,47.08
2017-06-26T14:12:23.568Z,47
2017-06-26T14:13:33.218Z,46.69
2017-06-26T14:14:43.480Z,47
2017-06-26T14:15:54.013Z,47.1
2017-06-26T14:17:04.307Z,47.39
2017-06-26T14:18:14.576Z,46.62
2017-06-26T14:19:24.547Z,45.97
2017-06-26T14:20:34.794Z,44.62
2017-06-26T14:21:45.382Z,44.52
2017-06-26T14:22:55.360Z,44.15
2017-06-26T14:24:05.631Z,43.38
2017-06-26T14:25:15.901Z,43.58
2017-06-26T14:26:26.153Z,43.58
2017-06-26T14:27:36.362Z,44.25
2017-06-26T14:28:46.315Z,44.25
2017-06-26T14:29:56.273Z,44.45
2017-06-26T14:31:06.539Z,44.54
2017-06-26T14:32:16.490Z,45
2017-06-26T14:33:27.008Z,45
2017-06-26T14:34:36.657Z,45.48
2017-06-26T14:35:46.920Z,45.46
2017-06-26T14:36:57.193Z,44.98
2017-06-26T14:38:07.451Z,45.07
2017-06-26T14:39:17.680Z,45.46
2017-06-26T14:40:27.962Z,45.07
2017-06-26T14:41:38.236Z,45.27
2017-06-26T14:42:48.491Z,45.27
2017-06-26T14:43:58.749Z,46.23
2017-06-26T14:45:08.967Z,46.33
2017-06-26T14:46:19.251Z,46.4
2017-06-26T14:47:29.189Z,46.31
2017-06-26T14:48:39.168Z,46.69
2017-06-26T14:49:49.446Z,47.36
2017-06-26T14:50:59.657Z,46.98
2017-06-26T14:52:09.607Z,47.56
2017-06-26T14:53:19.550Z,47.67
2017-06-26T14:54:29.188Z,46.81
2017-06-26T14:55:39.463Z,46.15
2017-06-26T14:56:49.971Z,45.48
2017-06-26T14:58:00.226Z,44.83
2017-06-26T14:59:10.481Z,44.93
2017-06-26T15:00:20.128Z,45.03
2017-06-26T15:01:30.399Z,45.77
2017-06-26T15:02:40.624Z,46.06
2017-06-26T15:03:50.896Z,46.25
2017-06-26T15:05:01.195Z,47
2017-06-26T15:06:10.864Z,46.35